sensor_id;sensor_type;location;lat;lon;timestamp;pressure;altitude;pressure_sealevel;temperature;humidity
13033;BME280;6583;42.632;23.298;2023-04-03T00:02:02;70471.78;;;-146.40;71.77
13033;BME280;6583;42.632;23.298;2023-04-03T00:04:29;70471.78;;;-146.40;71.42
13033;BME280;6583;42.632;23.298;2023-04-03T00:06:56;70461.66;;;-146.40;70.57
13033;BME280;6583;42.632;23.298;2023-04-03T00:09:22;70453.56;;;-146.40;70.96
13033;BME280;6583;42.632;23.298;2023-04-03T00:11:49;70445.47;;;-146.40;70.10
13033;BME280;6583;42.632;23.298;2023-04-03T00:14:17;70439.41;;;-146.40;70.48
13033;BME280;6583;42.632;23.298;2023-04-03T00:16:44;70453.56;;;-146.40;69.90
13033;BME280;6583;42.632;23.298;2023-04-03T00:19:11;70447.50;;;-146.40;70.27
13033;BME280;6583;42.632;23.298;2023-04-03T00:21:38;70441.44;;;-146.40;70.08
13033;BME280;6583;42.632;23.298;2023-04-03T00:24:05;70433.34;;;-146.40;70.71
13033;BME280;6583;42.632;23.298;2023-04-03T00:26:32;70429.28;;;-146.40;70.31
13033;BME280;6583;42.632;23.298;2023-04-03T00:28:59;70427.25;;;-146.40;70.08
13033;BME280;6583;42.632;23.298;2023-04-03T00:31:27;70425.25;;;-146.40;69.85
13033;BME280;6583;42.632;23.298;2023-04-03T00:33:53;70421.19;;;-146.40;69.01
13033;BME280;6583;42.632;23.298;2023-04-03T00:36:20;70429.28;;;-146.40;69.23
13033;BME280;6583;42.632;23.298;2023-04-03T00:38:47;70435.34;;;-146.40;69.29
13033;BME280;6583;42.632;23.298;2023-04-03T00:41:13;70441.44;;;-146.40;69.74
13033;BME280;6583;42.632;23.298;2023-04-03T00:43:40;70457.59;;;-146.40;70.15
13033;BME280;6583;42.632;23.298;2023-04-03T00:46:07;70461.66;;;-146.40;70.71
13033;BME280;6583;42.632;23.298;2023-04-03T00:48:38;70467.72;;;-146.40;71.27
13033;BME280;6583;42.632;23.298;2023-04-03T00:51:08;70485.94;;;-146.40;71.77
13033;BME280;6583;42.632;23.298;2023-04-03T00:53:39;70508.19;;;-146.40;72.37
13033;BME280;6583;42.632;23.298;2023-04-03T00:56:08;70506.16;;;-146.40;72.89
13033;BME280;6583;42.632;23.298;2023-04-03T00:58:40;70506.16;;;-146.40;72.26
13033;BME280;6583;42.632;23.298;2023-04-03T01:01:12;70522.34;;;-146.40;72.93
13033;BME280;6583;42.632;23.298;2023-04-03T01:03:42;70518.31;;;-146.40;73.25
13033;BME280;6583;42.632;23.298;2023-04-03T01:06:09;70530.44;;;-146.40;73.84
13033;BME280;6583;42.632;23.298;2023-04-03T01:08:36;70522.34;;;-146.40;74.35
13033;BME280;6583;42.632;23.298;2023-04-03T01:11:03;70526.41;;;-146.40;74.03
13033;BME280;6583;42.632;23.298;2023-04-03T01:13:31;70530.44;;;-146.40;74.31
13033;BME280;6583;42.632;23.298;2023-04-03T01:16:00;70530.44;;;-146.40;74.71
13033;BME280;6583;42.632;23.298;2023-04-03T01:18:27;70542.59;;;-146.40;74.56
13033;BME280;6583;42.632;23.298;2023-04-03T01:21:23;70534.50;;;-146.40;74.64
13033;BME280;6583;42.632;23.298;2023-04-03T01:24:04;70528.41;;;-146.40;75.03
13033;BME280;6583;42.632;23.298;2023-04-03T01:26:35;70518.31;;;-146.40;74.32
13033;BME280;6583;42.632;23.298;2023-04-03T01:29:02;70518.31;;;-146.40;74.77
13033;BME280;6583;42.632;23.298;2023-04-03T01:34:01;70485.94;;;-146.40;73.19
13033;BME280;6583;42.632;23.298;2023-04-03T01:36:29;70477.84;;;-146.40;72.65
13033;BME280;6583;42.632;23.298;2023-04-03T01:38:57;70463.69;;;-146.40;71.67
13033;BME280;6583;42.632;23.298;2023-04-03T01:41:24;70451.53;;;-146.40;71.11
13033;BME280;6583;42.632;23.298;2023-04-03T01:43:51;70441.44;;;-146.40;70.16
13033;BME280;6583;42.632;23.298;2023-04-03T01:46:19;70425.25;;;-146.40;68.93
13033;BME280;6583;42.632;23.298;2023-04-03T01:48:47;70425.25;;;-146.40;69.19
13033;BME280;6583;42.632;23.298;2023-04-03T01:51:15;70417.16;;;-146.40;69.12
13033;BME280;6583;42.632;23.298;2023-04-03T01:53:42;70433.34;;;-146.40;68.82
13033;BME280;6583;42.632;23.298;2023-04-03T01:56:09;70437.38;;;-146.40;69.42
13033;BME280;6583;42.632;23.298;2023-04-03T01:58:35;70431.31;;;-146.40;68.88
13033;BME280;6583;42.632;23.298;2023-04-03T02:01:02;70427.25;;;-146.40;68.72
13033;BME280;6583;42.632;23.298;2023-04-03T02:03:29;70421.19;;;-146.40;68.42
13033;BME280;6583;42.632;23.298;2023-04-03T02:05:56;70417.16;;;-146.40;67.84
13033;BME280;6583;42.632;23.298;2023-04-03T02:08:24;70411.06;;;-146.40;67.90
13033;BME280;6583;42.632;23.298;2023-04-03T02:10:51;70417.16;;;-146.40;67.60
13033;BME280;6583;42.632;23.298;2023-04-03T02:13:18;70409.06;;;-146.40;66.94
13033;BME280;6583;42.632;23.298;2023-04-03T02:15:45;70411.06;;;-146.40;67.20
13033;BME280;6583;42.632;23.298;2023-04-03T02:18:12;70417.16;;;-146.40;66.04
13033;BME280;6583;42.632;23.298;2023-04-03T02:20:39;70427.25;;;-146.40;66.13
13033;BME280;6583;42.632;23.298;2023-04-03T02:23:06;70421.19;;;-146.40;65.88
13033;BME280;6583;42.632;23.298;2023-04-03T02:25:34;70427.25;;;-146.40;66.35
13033;BME280;6583;42.632;23.298;2023-04-03T02:28:01;70433.34;;;-146.40;67.58
13033;BME280;6583;42.632;23.298;2023-04-03T02:30:27;70433.34;;;-146.40;67.11
13033;BME280;6583;42.632;23.298;2023-04-03T02:32:54;70429.28;;;-146.40;67.06
13033;BME280;6583;42.632;23.298;2023-04-03T02:35:21;70441.44;;;-146.40;67.13
13033;BME280;6583;42.632;23.298;2023-04-03T02:37:48;70453.56;;;-146.40;68.11
13033;BME280;6583;42.632;23.298;2023-04-03T02:40:14;70469.75;;;-146.40;68.79
13033;BME280;6583;42.632;23.298;2023-04-03T02:42:42;70502.13;;;-146.40;70.06
13033;BME280;6583;42.632;23.298;2023-04-03T02:45:09;70502.13;;;-146.40;70.93
13033;BME280;6583;42.632;23.298;2023-04-03T02:47:36;70506.16;;;-146.40;71.19
13033;BME280;6583;42.632;23.298;2023-04-03T02:50:03;70502.13;;;-146.40;71.25
13033;BME280;6583;42.632;23.298;2023-04-03T02:52:30;70500.09;;;-146.40;71.29
13033;BME280;6583;42.632;23.298;2023-04-03T02:54:57;70483.91;;;-146.40;70.72
13033;BME280;6583;42.632;23.298;2023-04-03T02:57:23;70481.88;;;-146.40;70.28
13033;BME280;6583;42.632;23.298;2023-04-03T02:59:51;70494.03;;;-146.40;70.44
13033;BME280;6583;42.632;23.298;2023-04-03T03:02:18;70522.34;;;-146.40;71.39
13033;BME280;6583;42.632;23.298;2023-04-03T03:04:45;70534.50;;;-146.40;72.51
13033;BME280;6583;42.632;23.298;2023-04-03T03:07:11;70530.44;;;-146.40;73.45
13033;BME280;6583;42.632;23.298;2023-04-03T03:09:38;70560.78;;;-146.40;74.04
13033;BME280;6583;42.632;23.298;2023-04-03T03:12:05;70550.69;;;-146.40;73.94
13033;BME280;6583;42.632;23.298;2023-04-03T03:14:31;70570.91;;;-146.40;75.04
13033;BME280;6583;42.632;23.298;2023-04-03T03:16:59;70574.97;;;-146.40;75.71
13033;BME280;6583;42.632;23.298;2023-04-03T03:19:26;70587.09;;;-146.40;75.77
13033;BME280;6583;42.632;23.298;2023-04-03T03:21:53;70587.09;;;-146.40;75.92
13033;BME280;6583;42.632;23.298;2023-04-03T03:24:19;70574.97;;;-146.40;75.56
13033;BME280;6583;42.632;23.298;2023-04-03T03:26:46;70566.88;;;-146.40;75.42
13033;BME280;6583;42.632;23.298;2023-04-03T03:29:13;70579.00;;;-146.40;75.51
13033;BME280;6583;42.632;23.298;2023-04-03T03:31:40;70574.97;;;-146.40;75.75
13033;BME280;6583;42.632;23.298;2023-04-03T03:34:08;70581.03;;;-146.40;76.26
13033;BME280;6583;42.632;23.298;2023-04-03T03:36:34;70579.00;;;-146.40;76.45
13033;BME280;6583;42.632;23.298;2023-04-03T03:39:01;70572.94;;;-146.40;76.64
13033;BME280;6583;42.632;23.298;2023-04-03T03:41:28;70560.78;;;-146.40;76.56
13033;BME280;6583;42.632;23.298;2023-04-03T03:43:55;70554.72;;;-146.40;76.00
13033;BME280;6583;42.632;23.298;2023-04-03T03:46:21;70542.59;;;-146.40;75.69
13033;BME280;6583;42.632;23.298;2023-04-03T03:48:48;70552.69;;;-146.40;75.81
13033;BME280;6583;42.632;23.298;2023-04-03T03:51:16;70566.88;;;-146.40;75.43
13033;BME280;6583;42.632;23.298;2023-04-03T03:53:43;70560.78;;;-146.40;76.05
13033;BME280;6583;42.632;23.298;2023-04-03T03:56:09;70574.97;;;-146.40;76.15
13033;BME280;6583;42.632;23.298;2023-04-03T03:58:36;70574.97;;;-146.40;76.92
13033;BME280;6583;42.632;23.298;2023-04-03T04:01:04;70572.94;;;-146.40;76.60
13033;BME280;6583;42.632;23.298;2023-04-03T04:03:31;70558.78;;;-146.40;76.97
13033;BME280;6583;42.632;23.298;2023-04-03T04:05:58;70550.69;;;-146.40;76.68
13033;BME280;6583;42.632;23.298;2023-04-03T04:08:26;70518.31;;;-146.40;75.91
13033;BME280;6583;42.632;23.298;2023-04-03T04:10:52;70506.16;;;-146.40;75.20
13033;BME280;6583;42.632;23.298;2023-04-03T04:13:20;70504.16;;;-146.40;74.89
13033;BME280;6583;42.632;23.298;2023-04-03T04:15:47;70508.19;;;-146.40;74.75
13033;BME280;6583;42.632;23.298;2023-04-03T04:18:13;70508.19;;;-146.40;73.68
13033;BME280;6583;42.632;23.298;2023-04-03T04:20:40;70502.13;;;-146.40;73.14
13033;BME280;6583;42.632;23.298;2023-04-03T04:23:07;70494.03;;;-146.40;72.56
13033;BME280;6583;42.632;23.298;2023-04-03T04:25:35;70485.94;;;-146.40;72.30
13033;BME280;6583;42.632;23.298;2023-04-03T04:28:01;70481.88;;;-146.40;72.83
13033;BME280;6583;42.632;23.298;2023-04-03T04:30:28;70489.97;;;-146.40;73.17
13033;BME280;6583;42.632;23.298;2023-04-03T04:32:55;70485.94;;;-146.40;73.81
13033;BME280;6583;42.632;23.298;2023-04-03T04:35:21;70508.19;;;-146.40;73.91
13033;BME280;6583;42.632;23.298;2023-04-03T04:37:48;70510.22;;;-146.40;74.50
13033;BME280;6583;42.632;23.298;2023-04-03T04:40:15;70512.25;;;-146.40;74.86
13033;BME280;6583;42.632;23.298;2023-04-03T04:42:43;70530.44;;;-146.40;75.43
13033;BME280;6583;42.632;23.298;2023-04-03T04:45:10;70534.50;;;-146.40;75.77
13033;BME280;6583;42.632;23.298;2023-04-03T04:47:37;70540.56;;;-146.40;76.48
13033;BME280;6583;42.632;23.298;2023-04-03T04:50:05;70544.59;;;-146.40;76.87
13033;BME280;6583;42.632;23.298;2023-04-03T04:52:31;70562.81;;;-146.40;77.59
13033;BME280;6583;42.632;23.298;2023-04-03T04:54:58;70556.75;;;-146.40;78.28
13033;BME280;6583;42.632;23.298;2023-04-03T04:57:25;70554.72;;;-146.40;78.37
13033;BME280;6583;42.632;23.298;2023-04-03T04:59:53;70554.72;;;-146.40;77.82
13033;BME280;6583;42.632;23.298;2023-04-03T05:02:19;70550.69;;;-146.40;78.28
13033;BME280;6583;42.632;23.298;2023-04-03T05:04:46;70554.72;;;-146.40;78.74
13033;BME280;6583;42.632;23.298;2023-04-03T05:07:15;70544.59;;;-146.40;78.75
13033;BME280;6583;42.632;23.298;2023-04-03T05:09:42;70550.69;;;-146.40;78.53
13033;BME280;6583;42.632;23.298;2023-04-03T05:12:08;70534.50;;;-146.40;78.44
13033;BME280;6583;42.632;23.298;2023-04-03T05:14:35;70534.50;;;-146.40;78.42
13033;BME280;6583;42.632;23.298;2023-04-03T05:17:03;70518.31;;;-146.40;78.08
13033;BME280;6583;42.632;23.298;2023-04-03T05:19:30;70510.22;;;-146.40;77.79
13033;BME280;6583;42.632;23.298;2023-04-03T05:21:56;70492.00;;;-146.40;77.95
13033;BME280;6583;42.632;23.298;2023-04-03T05:24:23;70485.94;;;-146.40;77.30
13033;BME280;6583;42.632;23.298;2023-04-03T05:26:50;70481.88;;;-146.40;78.05
13033;BME280;6583;42.632;23.298;2023-04-03T05:29:16;70485.94;;;-146.40;78.18
13033;BME280;6583;42.632;23.298;2023-04-03T05:31:43;70479.88;;;-146.40;78.19
13033;BME280;6583;42.632;23.298;2023-04-03T05:34:11;70465.69;;;-146.40;77.95
13033;BME280;6583;42.632;23.298;2023-04-03T05:36:38;70451.53;;;-146.40;78.18
13033;BME280;6583;42.632;23.298;2023-04-03T05:39:04;70437.38;;;-146.40;77.78
13033;BME280;6583;42.632;23.298;2023-04-03T05:41:31;70433.34;;;-146.40;77.82
13033;BME280;6583;42.632;23.298;2023-04-03T05:43:58;70421.19;;;-146.40;78.19
13033;BME280;6583;42.632;23.298;2023-04-03T05:46:24;70413.09;;;-146.40;76.90
13033;BME280;6583;42.632;23.298;2023-04-03T05:48:51;70398.94;;;-146.40;76.48
13033;BME280;6583;42.632;23.298;2023-04-03T05:51:22;70388.81;;;-146.40;76.58
13033;BME280;6583;42.632;23.298;2023-04-03T05:53:58;70376.69;;;-146.40;76.06
13033;BME280;6583;42.632;23.298;2023-04-03T05:56:27;70370.63;;;-146.40;75.47
13033;BME280;6583;42.632;23.298;2023-04-03T05:58:53;70360.50;;;-146.40;75.72
13033;BME280;6583;42.632;23.298;2023-04-03T06:01:20;70356.44;;;-146.40;74.19
13033;BME280;6583;42.632;23.298;2023-04-03T06:03:47;70352.41;;;-146.40;74.64
13033;BME280;6583;42.632;23.298;2023-04-03T06:06:14;70348.38;;;-146.40;74.20
13033;BME280;6583;42.632;23.298;2023-04-03T06:08:42;70332.19;;;-146.40;74.60
13033;BME280;6583;42.632;23.298;2023-04-03T06:11:09;70328.13;;;-146.40;73.62
13033;BME280;6583;42.632;23.298;2023-04-03T06:13:36;70316.00;;;-146.40;73.11
13033;BME280;6583;42.632;23.298;2023-04-03T06:16:04;70303.84;;;-146.40;72.48
13033;BME280;6583;42.632;23.298;2023-04-03T06:18:31;70299.81;;;-146.40;71.81
13033;BME280;6583;42.632;23.298;2023-04-03T06:20:58;70303.84;;;-146.40;70.78
13033;BME280;6583;42.632;23.298;2023-04-03T06:23:26;70305.88;;;-146.40;70.79
13033;BME280;6583;42.632;23.298;2023-04-03T06:25:54;70316.00;;;-146.40;69.32
13033;BME280;6583;42.632;23.298;2023-04-03T06:28:20;70334.19;;;-146.40;69.85
13033;BME280;6583;42.632;23.298;2023-04-03T06:30:47;70348.38;;;-146.40;71.19
13033;BME280;6583;42.632;23.298;2023-04-03T06:33:14;70344.31;;;-146.40;71.59
13033;BME280;6583;42.632;23.298;2023-04-03T06:35:40;70346.34;;;-146.40;72.35
13033;BME280;6583;42.632;23.298;2023-04-03T06:38:07;70352.41;;;-146.40;71.51
13033;BME280;6583;42.632;23.298;2023-04-03T06:40:35;70350.38;;;-146.40;71.84
13033;BME280;6583;42.632;23.298;2023-04-03T06:43:03;70350.38;;;-146.40;72.55
13033;BME280;6583;42.632;23.298;2023-04-03T06:45:30;70346.34;;;-146.40;71.49
13033;BME280;6583;42.632;23.298;2023-04-03T06:47:57;70338.25;;;-146.40;71.34
13033;BME280;6583;42.632;23.298;2023-04-03T06:50:25;70338.25;;;-146.40;71.66
13033;BME280;6583;42.632;23.298;2023-04-03T06:52:51;70334.19;;;-146.40;72.28
13033;BME280;6583;42.632;23.298;2023-04-03T06:55:18;70344.31;;;-146.40;71.83
13033;BME280;6583;42.632;23.298;2023-04-03T06:57:45;70372.63;;;-146.40;71.27
13033;BME280;6583;42.632;23.298;2023-04-03T07:00:14;70368.59;;;-146.40;71.92
13033;BME280;6583;42.632;23.298;2023-04-03T07:02:41;70358.47;;;-146.40;71.54
13033;BME280;6583;42.632;23.298;2023-04-03T07:05:08;70350.38;;;-146.40;72.34
13033;BME280;6583;42.632;23.298;2023-04-03T07:07:35;70346.34;;;-146.40;71.42
13033;BME280;6583;42.632;23.298;2023-04-03T07:10:03;70332.19;;;-146.40;72.08
13033;BME280;6583;42.632;23.298;2023-04-03T07:12:30;70318.00;;;-146.40;71.37
13033;BME280;6583;42.632;23.298;2023-04-03T07:14:57;70311.94;;;-146.40;71.38
13033;BME280;6583;42.632;23.298;2023-04-03T07:17:25;70297.78;;;-146.40;71.10
13033;BME280;6583;42.632;23.298;2023-04-03T07:19:52;70291.72;;;-146.40;70.59
13033;BME280;6583;42.632;23.298;2023-04-03T07:22:18;70287.66;;;-146.40;71.34
13033;BME280;6583;42.632;23.298;2023-04-03T07:24:45;70273.50;;;-146.40;70.77
13033;BME280;6583;42.632;23.298;2023-04-03T07:27:12;70267.44;;;-146.40;70.46
13033;BME280;6583;42.632;23.298;2023-04-03T07:29:39;70259.34;;;-146.40;70.85
13033;BME280;6583;42.632;23.298;2023-04-03T07:32:06;70239.13;;;-146.40;70.67
13033;BME280;6583;42.632;23.298;2023-04-03T07:34:34;70235.06;;;-146.40;70.85
13033;BME280;6583;42.632;23.298;2023-04-03T07:37:01;70216.84;;;-146.40;70.29
13033;BME280;6583;42.632;23.298;2023-04-03T07:39:27;70202.69;;;-146.40;68.79
13033;BME280;6583;42.632;23.298;2023-04-03T07:41:54;70194.59;;;-146.40;68.50
13033;BME280;6583;42.632;23.298;2023-04-03T07:44:21;70186.50;;;-146.40;68.73
13033;BME280;6583;42.632;23.298;2023-04-03T07:46:51;70172.34;;;-146.40;68.18
13033;BME280;6583;42.632;23.298;2023-04-03T07:49:17;70164.25;;;-146.40;67.26
13033;BME280;6583;42.632;23.298;2023-04-03T07:51:45;70170.34;;;-146.40;66.47
13033;BME280;6583;42.632;23.298;2023-04-03T07:54:13;70164.25;;;-146.40;66.50
13033;BME280;6583;42.632;23.298;2023-04-03T07:56:40;70148.09;;;-146.40;66.10
13033;BME280;6583;42.632;23.298;2023-04-03T07:59:08;70166.28;;;-146.40;64.24
13033;BME280;6583;42.632;23.298;2023-04-03T08:01:35;70172.34;;;-146.40;65.93
13033;BME280;6583;42.632;23.298;2023-04-03T08:04:02;70172.34;;;-146.40;66.39
13033;BME280;6583;42.632;23.298;2023-04-03T08:06:31;70162.25;;;-146.40;65.10
13033;BME280;6583;42.632;23.298;2023-04-03T08:09:00;70154.16;;;-146.40;64.39
13033;BME280;6583;42.632;23.298;2023-04-03T08:11:27;70162.25;;;-146.40;64.56
13033;BME280;6583;42.632;23.298;2023-04-03T08:13:53;70154.16;;;-146.40;64.53
13033;BME280;6583;42.632;23.298;2023-04-03T08:16:22;70162.25;;;-146.40;64.78
13033;BME280;6583;42.632;23.298;2023-04-03T08:18:50;70170.34;;;-146.40;64.13
13033;BME280;6583;42.632;23.298;2023-04-03T08:21:17;70168.31;;;-146.40;63.64
13033;BME280;6583;42.632;23.298;2023-04-03T08:23:44;70174.38;;;-146.40;64.72
13033;BME280;6583;42.632;23.298;2023-04-03T08:26:15;70180.44;;;-146.40;65.31
13033;BME280;6583;42.632;23.298;2023-04-03T08:28:42;70188.53;;;-146.40;66.82
13033;BME280;6583;42.632;23.298;2023-04-03T08:31:11;70182.47;;;-146.40;65.79
13033;BME280;6583;42.632;23.298;2023-04-03T08:33:39;70184.50;;;-146.40;65.02
13033;BME280;6583;42.632;23.298;2023-04-03T08:36:07;70188.53;;;-146.40;66.48
13033;BME280;6583;42.632;23.298;2023-04-03T08:38:42;70176.41;;;-146.40;66.51
13033;BME280;6583;42.632;23.298;2023-04-03T08:41:14;70154.16;;;-146.40;65.23
13033;BME280;6583;42.632;23.298;2023-04-03T08:43:55;70148.09;;;-146.40;65.23
13033;BME280;6583;42.632;23.298;2023-04-03T08:46:30;70137.97;;;-146.40;64.36
13033;BME280;6583;42.632;23.298;2023-04-03T08:48:59;70133.91;;;-146.40;64.24
13033;BME280;6583;42.632;23.298;2023-04-03T08:51:27;70137.97;;;-146.40;64.04
13033;BME280;6583;42.632;23.298;2023-04-03T08:53:57;70125.81;;;-146.40;63.38
13033;BME280;6583;42.632;23.298;2023-04-03T08:56:27;70117.72;;;-146.40;64.20
13033;BME280;6583;42.632;23.298;2023-04-03T08:58:56;70125.81;;;-146.40;62.88
13033;BME280;6583;42.632;23.298;2023-04-03T09:01:27;70111.66;;;-146.40;64.63
13033;BME280;6583;42.632;23.298;2023-04-03T09:03:56;70097.50;;;-146.40;64.91
13033;BME280;6583;42.632;23.298;2023-04-03T09:06:26;70077.28;;;-146.40;63.81
13033;BME280;6583;42.632;23.298;2023-04-03T09:09:04;70044.91;;;-146.40;62.65
13033;BME280;6583;42.632;23.298;2023-04-03T09:11:44;70042.88;;;-146.40;62.49
13033;BME280;6583;42.632;23.298;2023-04-03T09:14:16;70026.69;;;-146.40;61.93
13033;BME280;6583;42.632;23.298;2023-04-03T09:16:50;70024.69;;;-146.40;57.71
13033;BME280;6583;42.632;23.298;2023-04-03T09:19:27;70018.59;;;-146.40;56.18
13033;BME280;6583;42.632;23.298;2023-04-03T09:22:02;70008.50;;;-146.40;53.43
13033;BME280;6583;42.632;23.298;2023-04-03T09:24:31;69992.31;;;-146.40;52.52
13033;BME280;6583;42.632;23.298;2023-04-03T09:27:04;69978.16;;;-146.40;51.26
13033;BME280;6583;42.632;23.298;2023-04-03T09:29:35;69964.00;;;-146.40;51.00
13033;BME280;6583;42.632;23.298;2023-04-03T09:32:19;69955.91;;;-146.40;51.75
13033;BME280;6583;42.632;23.298;2023-04-03T09:34:47;69976.13;;;-146.40;49.43
13033;BME280;6583;42.632;23.298;2023-04-03T09:37:34;69968.03;;;-146.40;50.03
13033;BME280;6583;42.632;23.298;2023-04-03T09:40:02;69953.88;;;-146.40;52.92
13033;BME280;6583;42.632;23.298;2023-04-03T09:42:31;69957.94;;;-146.40;49.71
13033;BME280;6583;42.632;23.298;2023-04-03T09:45:00;69959.94;;;-146.40;48.29
13033;BME280;6583;42.632;23.298;2023-04-03T09:47:29;69968.03;;;-146.40;49.85
13033;BME280;6583;42.632;23.298;2023-04-03T09:50:20;69964.00;;;-146.40;49.21
13033;BME280;6583;42.632;23.298;2023-04-03T09:52:48;69964.00;;;-146.40;49.37
13033;BME280;6583;42.632;23.298;2023-04-03T09:55:17;69959.94;;;-146.40;49.42
13033;BME280;6583;42.632;23.298;2023-04-03T09:57:48;69968.03;;;-146.40;49.17
13033;BME280;6583;42.632;23.298;2023-04-03T10:00:25;69966.00;;;-146.40;48.39
13033;BME280;6583;42.632;23.298;2023-04-03T10:02:54;69972.09;;;-146.40;49.55
13033;BME280;6583;42.632;23.298;2023-04-03T10:05:31;69970.06;;;-146.40;51.54
13033;BME280;6583;42.632;23.298;2023-04-03T10:08:11;69959.94;;;-146.40;51.46
13033;BME280;6583;42.632;23.298;2023-04-03T10:10:47;69980.19;;;-146.40;51.50
13033;BME280;6583;42.632;23.298;2023-04-03T10:13:17;69976.13;;;-146.40;51.69
13033;BME280;6583;42.632;23.298;2023-04-03T10:15:48;69978.16;;;-146.40;50.93
13033;BME280;6583;42.632;23.298;2023-04-03T10:18:29;69972.09;;;-146.40;52.08
13033;BME280;6583;42.632;23.298;2023-04-03T10:21:00;69976.13;;;-146.40;51.57
13033;BME280;6583;42.632;23.298;2023-04-03T10:23:33;69961.97;;;-146.40;50.33
13033;BME280;6583;42.632;23.298;2023-04-03T10:26:10;69955.91;;;-146.40;50.93
13033;BME280;6583;42.632;23.298;2023-04-03T10:28:44;69947.81;;;-146.40;50.14
13033;BME280;6583;42.632;23.298;2023-04-03T10:31:18;69945.78;;;-146.40;50.65
13033;BME280;6583;42.632;23.298;2023-04-03T10:33:56;69945.78;;;-146.40;52.08
13033;BME280;6583;42.632;23.298;2023-04-03T10:36:33;69957.94;;;-146.40;51.59
13033;BME280;6583;42.632;23.298;2023-04-03T10:39:10;69966.00;;;-146.40;52.00
13033;BME280;6583;42.632;23.298;2023-04-03T10:41:49;69964.00;;;-146.40;52.75
13033;BME280;6583;42.632;23.298;2023-04-03T10:44:29;69968.03;;;-146.40;51.77
13033;BME280;6583;42.632;23.298;2023-04-03T10:47:02;69970.06;;;-146.40;53.16
13033;BME280;6583;42.632;23.298;2023-04-03T10:49:42;69972.09;;;-146.40;52.95
13033;BME280;6583;42.632;23.298;2023-04-03T10:52:18;69964.00;;;-146.40;53.19
13033;BME280;6583;42.632;23.298;2023-04-03T10:54:56;69968.03;;;-146.40;53.83
13033;BME280;6583;42.632;23.298;2023-04-03T10:57:28;69959.94;;;-146.40;55.18
13033;BME280;6583;42.632;23.298;2023-04-03T10:59:59;69966.00;;;-146.40;56.07
13033;BME280;6583;42.632;23.298;2023-04-03T11:02:30;69957.94;;;-146.40;57.40
13033;BME280;6583;42.632;23.298;2023-04-03T11:05:00;69964.00;;;-146.40;58.04
13033;BME280;6583;42.632;23.298;2023-04-03T11:07:32;69964.00;;;-146.40;59.62
13033;BME280;6583;42.632;23.298;2023-04-03T11:10:03;69976.13;;;-146.40;61.83
13033;BME280;6583;42.632;23.298;2023-04-03T11:12:40;69974.09;;;-146.40;61.80
13033;BME280;6583;42.632;23.298;2023-04-03T11:15:14;69986.25;;;-146.40;65.52
13033;BME280;6583;42.632;23.298;2023-04-03T11:17:44;69994.34;;;-146.40;67.84
13033;BME280;6583;42.632;23.298;2023-04-03T11:20:17;70020.63;;;-146.40;71.48
13033;BME280;6583;42.632;23.298;2023-04-03T11:22:48;70020.63;;;-146.40;71.34
13033;BME280;6583;42.632;23.298;2023-04-03T11:25:20;70036.81;;;-146.40;75.81
13033;BME280;6583;42.632;23.298;2023-04-03T11:27:52;70042.88;;;-146.40;77.72
13033;BME280;6583;42.632;23.298;2023-04-03T11:30:25;70044.91;;;-146.40;79.07
13033;BME280;6583;42.632;23.298;2023-04-03T11:33:05;70063.13;;;-146.40;80.99
13033;BME280;6583;42.632;23.298;2023-04-03T11:35:36;70081.31;;;-146.40;81.06
13033;BME280;6583;42.632;23.298;2023-04-03T11:38:05;70099.53;;;-146.40;83.21
13033;BME280;6583;42.632;23.298;2023-04-03T11:40:33;70109.63;;;-146.40;84.77
13033;BME280;6583;42.632;23.298;2023-04-03T11:43:07;70121.78;;;-146.40;87.18
13033;BME280;6583;42.632;23.298;2023-04-03T11:45:58;70123.81;;;-146.40;88.36
13033;BME280;6583;42.632;23.298;2023-04-03T11:48:45;70127.84;;;-146.40;89.43
13033;BME280;6583;42.632;23.298;2023-04-03T11:51:40;70123.81;;;-146.40;90.47
13033;BME280;6583;42.632;23.298;2023-04-03T11:54:36;70133.91;;;-146.40;91.81
13033;BME280;6583;42.632;23.298;2023-04-03T12:03:30;70168.31;;;-146.40;94.61
13033;BME280;6583;42.632;23.298;2023-04-03T12:09:25;70186.50;;;-146.40;95.84
13033;BME280;6583;42.632;23.298;2023-04-03T12:11:53;70188.53;;;-146.40;96.42
13033;BME280;6583;42.632;23.298;2023-04-03T12:14:22;70198.66;;;-146.40;96.72
13033;BME280;6583;42.632;23.298;2023-04-03T12:16:52;70194.59;;;-146.40;97.12
13033;BME280;6583;42.632;23.298;2023-04-03T12:19:35;70188.53;;;-146.40;98.03
13033;BME280;6583;42.632;23.298;2023-04-03T12:22:11;70186.50;;;-146.40;98.30
13033;BME280;6583;42.632;23.298;2023-04-03T12:24:39;70204.72;;;-146.40;98.69
13033;BME280;6583;42.632;23.298;2023-04-03T12:27:26;70210.78;;;-146.40;97.59
13033;BME280;6583;42.632;23.298;2023-04-03T12:29:58;70216.84;;;-146.40;95.38
13033;BME280;6583;42.632;23.298;2023-04-03T12:32:41;70212.81;;;-146.40;94.37
13033;BME280;6583;42.632;23.298;2023-04-03T12:35:18;70214.84;;;-146.40;91.98
13033;BME280;6583;42.632;23.298;2023-04-03T12:38:11;70218.88;;;-146.40;89.26
13033;BME280;6583;42.632;23.298;2023-04-03T12:40:45;70229.00;;;-146.40;90.71
13033;BME280;6583;42.632;23.298;2023-04-03T12:43:24;70231.03;;;-146.40;91.59
13033;BME280;6583;42.632;23.298;2023-04-03T12:45:58;70235.06;;;-146.40;90.84
13033;BME280;6583;42.632;23.298;2023-04-03T12:48:30;70235.06;;;-146.40;91.61
13033;BME280;6583;42.632;23.298;2023-04-03T12:50:59;70226.97;;;-146.40;91.94
13033;BME280;6583;42.632;23.298;2023-04-03T12:53:28;70206.75;;;-146.40;91.87
13033;BME280;6583;42.632;23.298;2023-04-03T12:55:56;70214.84;;;-146.40;92.27
13033;BME280;6583;42.632;23.298;2023-04-03T12:58:24;70218.88;;;-146.40;92.99
13033;BME280;6583;42.632;23.298;2023-04-03T13:01:10;70235.06;;;-146.40;93.82
13033;BME280;6583;42.632;23.298;2023-04-03T13:03:39;70231.03;;;-146.40;92.79
13033;BME280;6583;42.632;23.298;2023-04-03T13:06:14;70251.25;;;-146.40;93.82